Time;durP1;ratioP1;P1;durP2;ratioP2;P2;SDS_P1;SDS_P2;PMS_P1;PMS_P2;Temp;Humidity;BMP_temperature;BMP_pressure;BME280_temperature;BME280_humidity;BME280_pressure;Samples;Min_cycle;Max_cycle;Signal;HPM_P1;HPM_P2
2021/12/08 00:02:11;;;;;;;59.67;30.72;;;;;;;-0.69;76.97;100005.55;2138639;83;30704;-75
2021/12/08 00:05:16;;;;;;;58.33;28.62;;;;;;;-0.70;76.91;100007.28;2132168;83;28641;-72
2021/12/08 00:08:21;;;;;;;60.05;29.77;;;;;;;-0.70;76.92;99998.54;2105008;84;28694;-71
2021/12/08 00:14:26;;;;;;;77.85;36.53;;;;;;;-0.64;77.04;100008.98;2033930;86;33988;-69
2021/12/08 00:17:28;;;;;;;63.70;30.40;;;;;;;-0.66;76.92;100004.21;2047087;85;29804;-65
2021/12/08 00:20:32;;;;;;;62.73;30.48;;;;;;;-0.65;77.02;99997.61;2066258;85;27963;-70
2021/12/08 00:23:34;;;;;;;60.35;31.12;;;;;;;-0.64;77.01;99995.84;2078949;85;28724;-69
2021/12/08 00:26:36;;;;;;;57.88;30.30;;;;;;;-0.62;77.15;99991.02;2050977;85;32294;-64
2021/12/08 00:29:38;;;;;;;69.42;34.35;;;;;;;-0.64;76.93;99979.63;2044619;87;33109;-66
2021/12/08 00:32:40;;;;;;;61.90;31.60;;;;;;;-0.64;76.99;99978.31;2046715;85;29821;-73
2021/12/08 00:35:45;;;;;;;65.03;33.13;;;;;;;-0.64;77.04;99981.37;2054819;85;28311;-66
2021/12/08 00:38:46;;;;;;;60.78;30.88;;;;;;;-0.63;77.07;99972.16;2078762;84;32825;-72
2021/12/08 00:41:48;;;;;;;64.25;32.83;;;;;;;-0.64;76.95;99957.69;2078897;85;31463;-62
2021/12/08 00:44:50;;;;;;;69.53;34.23;;;;;;;-0.66;76.93;99966.07;2057609;85;33406;-67
2021/12/08 00:47:54;;;;;;;69.45;34.10;;;;;;;-0.68;76.99;99976.58;2037192;87;29337;-66
2021/12/08 00:50:56;;;;;;;73.75;35.73;;;;;;;-0.66;77.05;99976.59;2068153;82;27675;-66
2021/12/08 00:53:58;;;;;;;64.35;32.63;;;;;;;-0.67;77.01;99967.81;2161457;82;28687;-65
2021/12/08 00:57:00;;;;;;;66.22;34.25;;;;;;;-0.66;77.01;99970.02;2161404;82;31074;-69
2021/12/08 01:00:07;;;;;;;73.90;38.25;;;;;;;-0.66;77.02;99966.92;2161623;82;33440;-69
2021/12/08 01:03:10;;;;;;;78.65;38.25;;;;;;;-0.66;77.06;99981.39;2161985;82;30132;-73
2021/12/08 01:06:14;;;;;;;69.62;35.70;;;;;;;-0.67;77.01;99974.39;2161530;82;27663;-67
2021/12/08 01:09:16;;;;;;;79.15;38.35;;;;;;;-0.66;77.03;99983.17;2148640;82;29521;-66
2021/12/08 01:12:18;;;;;;;89.32;42.38;;;;;;;-0.64;77.16;99985.31;2151054;82;31100;-66
2021/12/08 01:15:22;;;;;;;80.80;39.90;;;;;;;-0.62;77.12;99975.66;2121935;83;34179;-66
2021/12/08 01:18:26;;;;;;;67.62;34.85;;;;;;;-0.59;77.19;99972.14;2151579;82;29417;-57
2021/12/08 01:21:28;;;;;;;81.82;39.13;;;;;;;-0.58;77.04;99967.31;2151675;81;27732;-72
2021/12/08 01:24:31;;;;;;;75.75;37.95;;;;;;;-0.59;77.08;99969.05;2147813;81;29838;-66
2021/12/08 01:27:34;;;;;;;86.37;41.55;;;;;;;-0.57;77.13;99970.34;2149490;81;32280;-69
2021/12/08 01:30:36;;;;;;;80.77;39.65;;;;;;;-0.58;77.18;99972.12;2148015;82;32955;-72
2021/12/08 01:33:40;;;;;;;82.30;39.70;;;;;;;-0.52;77.16;99962.86;2182887;81;29401;-71
2021/12/08 01:36:42;;;;;;;77.03;36.77;;;;;;;-0.53;76.97;99954.96;2131998;82;27687;-58
2021/12/08 01:39:43;;;;;;;81.45;38.50;;;;;;;-0.55;77.01;99947.52;2122849;83;29127;-73
2021/12/08 01:42:49;;;;;;;87.97;42.20;;;;;;;-0.57;77.01;99950.19;2123549;83;31963;-72
2021/12/08 01:46:00;;;;;;;73.33;35.75;;;;;;;-0.55;77.01;99951.47;2167473;80;33129;-69
2021/12/08 01:49:04;;;;;;;73.60;37.20;;;;;;;-0.55;77.01;99944.47;2181623;81;29382;-70
2021/12/08 01:52:06;;;;;;;81.63;38.90;;;;;;;-0.57;77.02;99935.71;2185318;81;27727;-69
2021/12/08 01:55:10;;;;;;;71.65;34.55;;;;;;;-0.54;77.04;99942.69;2185920;81;29040;-70
2021/12/08 01:58:13;;;;;;;82.00;37.05;;;;;;;-0.54;77.04;99938.32;2185985;81;31012;-70
2021/12/08 02:01:19;;;;;;;71.75;34.85;;;;;;;-0.54;76.98;99934.80;2182423;81;34127;-71
2021/12/08 02:04:21;;;;;;;88.30;42.95;;;;;;;-0.58;77.00;99931.34;2114943;82;28646;-73
2021/12/08 02:07:24;;;;;;;79.42;37.85;;;;;;;-0.58;77.07;99928.70;2182804;81;27685;-71
2021/12/08 02:10:27;;;;;;;96.02;44.75;;;;;;;-0.58;77.01;99928.70;2181918;81;29514;-71
2021/12/08 02:13:36;;;;;;;87.42;41.68;;;;;;;-0.60;77.02;99923.04;2114948;82;31918;-72
2021/12/08 02:16:34;;;;;;;94.62;46.10;;;;;;;-0.63;77.04;99919.55;2204678;80;32985;-66
2021/12/08 02:19:38;;;;;;;100.50;48.90;;;;;;;-0.64;77.07;99915.60;2155041;82;29602;-60
2021/12/08 02:22:40;;;;;;;90.57;43.13;;;;;;;-0.62;77.28;99899.36;2151554;82;27725;-66
2021/12/08 02:25:44;;;;;;;96.63;46.23;;;;;;;-0.60;77.19;99898.91;2175661;81;29105;-71
2021/12/08 02:28:46;;;;;;;91.42;44.08;;;;;;;-0.61;77.21;99895.84;2085290;84;31089;-69
2021/12/08 02:31:57;;;;;;;94.07;45.88;;;;;;;-0.60;77.23;99893.64;2183139;81;33331;-65
2021/12/08 02:48:17;;;;;;;79.40;38.15;;;;;;;-0.55;77.19;99865.54;2152819;82;34171;-73
2021/12/08 02:51:20;;;;;;;78.85;39.00;;;;;;;-0.55;77.23;99869.91;2115149;84;30479;-72
2021/12/08 02:54:22;;;;;;;77.15;38.28;;;;;;;-0.59;77.23;99855.08;2183007;81;27659;-72
2021/12/08 02:57:27;;;;;;;86.20;41.33;;;;;;;-0.57;77.30;99855.47;2182509;81;30043;-71
2021/12/08 03:00:34;;;;;;;87.90;45.08;;;;;;;-0.57;77.38;99854.16;2179367;80;30840;-72
2021/12/08 03:03:37;;;;;;;83.60;38.38;;;;;;;-0.55;77.29;99847.55;2113977;84;32970;-70
2021/12/08 03:06:39;;;;;;;79.15;37.38;;;;;;;-0.54;77.37;99844.03;2152570;82;30163;-70
2021/12/08 03:09:41;;;;;;;76.40;38.95;;;;;;;-0.50;77.35;99851.00;2114159;84;27668;-71
2021/12/08 03:12:43;;;;;;;70.52;34.18;;;;;;;-0.51;77.24;99847.95;2183088;81;29009;-70
2021/12/08 03:15:45;;;;;;;87.42;37.35;;;;;;;-0.55;77.18;99835.71;2182494;81;32402;-69
2021/12/08 03:18:47;;;;;;;81.97;37.05;;;;;;;-0.56;77.29;99835.28;2182767;81;32993;-71
2021/12/08 03:21:49;;;;;;;80.47;37.05;;;;;;;-0.59;77.28;99829.62;2182624;81;30531;-67
2021/12/08 03:24:52;;;;;;;80.28;36.90;;;;;;;-0.60;77.32;99824.39;2182010;81;27546;-60
2021/12/08 03:28:09;;;;;;;85.40;37.42;;;;;;;-0.59;77.37;99823.05;2197976;80;29467;-72
2021/12/08 03:31:16;;;;;;;85.75;38.75;;;;;;;-0.58;77.38;99820.84;2189097;80;32126;-73
2021/12/08 03:34:14;;;;;;;89.07;38.20;;;;;;;-0.59;77.33;99811.20;2152354;82;33043;-72
2021/12/08 03:37:17;;;;;;;80.20;38.55;;;;;;;-0.57;77.44;99797.59;2150237;82;29351;-73
2021/12/08 03:40:23;;;;;;;84.40;36.15;;;;;;;-0.54;77.42;99795.36;2202161;79;28215;-71
2021/12/08 03:43:26;;;;;;;81.45;36.30;;;;;;;-0.53;77.43;99791.84;2084097;82;29424;-72
2021/12/08 03:46:32;;;;;;;86.25;35.38;;;;;;;-0.54;77.39;99784.41;2177594;80;31889;-70
2021/12/08 03:49:33;;;;;;;74.55;33.40;;;;;;;-0.54;77.33;99787.03;2161358;81;32928;-73
2021/12/08 03:52:37;;;;;;;87.37;38.78;;;;;;;-0.54;77.35;99777.83;2072430;83;29406;-71
2021/12/08 03:55:40;;;;;;;75.47;36.23;;;;;;;-0.53;77.40;99785.27;2150726;81;27637;-68
2021/12/08 03:58:42;;;;;;;73.85;33.63;;;;;;;-0.57;77.25;99771.28;2165774;81;28907;-65
2021/12/08 04:01:44;;;;;;;78.83;36.53;;;;;;;-0.59;77.34;99769.57;2144891;82;32059;-65
2021/12/08 04:04:49;;;;;;;83.33;36.95;;;;;;;-0.62;77.33;99762.14;2122995;83;33374;-72
2021/12/08 04:07:52;;;;;;;73.17;33.67;;;;;;;-0.65;77.38;99756.03;2152021;81;28927;-64
2021/12/08 04:10:53;;;;;;;71.10;31.55;;;;;;;-0.66;77.40;99759.58;2160173;82;27831;-73
2021/12/08 04:14:00;;;;;;;78.25;34.30;;;;;;;-0.67;77.45;99760.47;2165711;82;28698;-64
2021/12/08 04:17:10;;;;;;;77.65;34.45;;;;;;;-0.70;77.48;99757.41;2164402;82;31815;-70
2021/12/08 04:20:29;;;;;;;77.70;34.67;;;;;;;-0.68;77.60;99746.88;2170233;81;34192;-67
2021/12/08 04:23:36;;;;;;;78.10;34.03;;;;;;;-0.69;77.52;99749.94;2118199;83;29739;-71
2021/12/08 04:26:41;;;;;;;72.47;31.52;;;;;;;-0.70;77.51;99753.45;2123597;81;27666;-68
2021/12/08 04:29:44;;;;;;;73.10;30.23;;;;;;;-0.71;77.50;99743.83;2113521;84;28737;-75
2021/12/08 04:32:47;;;;;;;75.78;33.30;;;;;;;-0.71;77.53;99737.71;2142865;82;31860;-71
2021/12/08 04:35:51;;;;;;;79.27;31.25;;;;;;;-0.73;77.49;99732.45;2123498;83;33771;-54
2021/12/08 04:38:57;;;;;;;83.82;33.18;;;;;;;-0.75;77.66;99732.05;2123662;83;29560;-71
2021/12/08 04:42:05;;;;;;;66.72;30.08;;;;;;;-0.78;77.72;99735.61;2164835;82;28159;-67
2021/12/08 04:45:09;;;;;;;71.25;30.12;;;;;;;-0.79;77.78;99732.55;2164672;82;30006;-74
2021/12/08 04:51:42;;;;;;;64.00;29.18;;;;;;;-0.80;77.78;99732.97;2163466;82;33422;-71
2021/12/08 05:01:24;;;;;;;72.70;29.27;;;;;;;-0.79;77.92;99744.38;2072846;85;28832;-70
2021/12/08 05:10:52;;;;;;;78.55;30.80;;;;;;;-0.80;77.91;99749.21;2080054;85;29545;-71
2021/12/08 05:14:17;;;;;;;73.28;28.38;;;;;;;-0.83;77.93;99744.88;2080911;85;27811;-66
2021/12/08 05:17:24;;;;;;;88.33;34.20;;;;;;;-0.84;78.02;99743.55;2080903;84;28475;-68
2021/12/08 05:20:39;;;;;;;71.80;29.52;;;;;;;-0.83;77.99;99743.98;2079770;84;30750;-70
2021/12/08 05:23:57;;;;;;;82.50;32.73;;;;;;;-0.82;78.07;99737.38;2080495;84;35164;-61
2021/12/08 05:27:07;;;;;;;76.37;30.40;;;;;;;-0.81;78.05;99739.58;2081111;84;29390;-65
2021/12/08 05:30:23;;;;;;;77.78;30.48;;;;;;;-0.83;78.04;99751.45;2078960;85;28159;-63
2021/12/08 05:33:26;;;;;;;78.12;33.48;;;;;;;-0.83;78.00;99757.13;2041354;87;28909;-66
2021/12/08 05:36:27;;;;;;;72.42;31.48;;;;;;;-0.83;77.96;99758.02;2084635;85;30954;-60
2021/12/08 05:39:32;;;;;;;74.95;31.77;;;;;;;-0.79;78.03;99762.33;2083865;85;33546;-67
2021/12/08 05:42:35;;;;;;;82.77;34.33;;;;;;;-0.80;77.83;99751.38;2084924;85;29354;-65
2021/12/08 05:45:39;;;;;;;74.92;30.88;;;;;;;-0.82;77.91;99753.16;2084743;85;27746;-62
2021/12/08 05:48:45;;;;;;;85.75;34.38;;;;;;;-0.81;77.93;99750.09;2052034;85;28680;-66
2021/12/08 05:51:50;;;;;;;73.65;31.75;;;;;;;-0.80;77.96;99751.38;2051058;86;32059;-69
2021/12/08 05:54:52;;;;;;;;;;;;;;;-0.78;77.88;99754.02;2054342;86;33169;-58
2021/12/08 05:57:54;;;;;;;70.95;29.82;;;;;;;-0.80;77.78;99740.86;2048156;86;29486;-68
2021/12/08 06:01:17;;;;;;;73.30;32.58;;;;;;;-0.82;77.66;99740.47;2087066;85;28271;-70
2021/12/08 06:04:20;;;;;;;73.02;32.35;;;;;;;-0.82;77.60;99742.64;2061667;86;29881;-68
2021/12/08 06:07:23;;;;;;;72.10;32.35;;;;;;;-0.81;77.67;99743.06;2062506;86;31520;-70
2021/12/08 06:10:33;;;;;;;70.42;28.73;;;;;;;-0.79;77.54;99737.81;2118339;81;33430;-71
2021/12/08 06:13:35;;;;;;;64.65;27.93;;;;;;;-0.80;77.35;99742.17;2183449;81;30523;-70
2021/12/08 06:16:41;;;;;;;69.37;29.25;;;;;;;-0.82;77.25;99734.75;2182730;81;27697;-66
2021/12/08 06:19:45;;;;;;;70.47;31.65;;;;;;;-0.83;77.18;99737.41;2137398;81;29708;-73
2021/12/08 06:22:50;;;;;;;65.27;30.33;;;;;;;-0.84;77.24;99736.55;2139268;82;31111;-68
2021/12/08 06:25:52;;;;;;;77.70;32.88;;;;;;;-0.84;77.08;99734.35;2138654;82;34792;-72
2021/12/08 06:28:55;;;;;;;65.50;29.02;;;;;;;-0.86;76.95;99738.33;2151665;81;29097;-71
2021/12/08 06:32:00;;;;;;;63.50;28.42;;;;;;;-0.85;76.89;99735.23;2160243;81;27731;-71
2021/12/08 06:35:06;;;;;;;57.38;26.68;;;;;;;-0.86;76.90;99740.96;2184783;81;28685;-71
2021/12/08 06:38:10;;;;;;;68.78;28.95;;;;;;;-0.87;76.73;99743.16;2161218;82;31219;-70
2021/12/08 06:41:20;;;;;;;64.70;30.02;;;;;;;-0.89;76.85;99743.62;2154606;82;33898;-67
2021/12/08 06:44:32;;;;;;;74.82;32.05;;;;;;;-0.90;76.85;99747.13;2107510;83;30357;-70
2021/12/08 06:47:35;;;;;;;74.50;31.97;;;;;;;-0.89;76.89;99747.98;2089527;84;27667;-64
2021/12/08 06:50:42;;;;;;;70.75;32.60;;;;;;;-0.91;76.78;99751.97;2119344;84;28704;-71
2021/12/08 06:53:49;;;;;;;72.45;30.52;;;;;;;-0.93;76.84;99755.94;2096562;84;31097;-64
2021/12/08 06:56:56;;;;;;;71.35;32.58;;;;;;;-0.93;76.67;99757.68;2120813;83;33778;-70
2021/12/08 07:00:19;;;;;;;63.78;29.98;;;;;;;-0.95;76.70;99753.77;2154516;81;30524;-66
2021/12/08 07:06:56;;;;;;;86.50;34.43;;;;;;;-0.96;76.81;99753.34;2155210;82;28308;-65
2021/12/08 07:09:50;;;;;;;69.10;31.23;;;;;;;-0.96;76.81;99749.82;2124318;81;31054;-69
2021/12/08 07:12:57;;;;;;;79.80;35.25;;;;;;;-0.95;76.78;99755.51;2165995;81;34179;-68
2021/12/08 07:16:13;;;;;;;82.40;35.08;;;;;;;-0.95;76.74;99757.71;2162489;81;29110;-67
2021/12/08 07:19:34;;;;;;;82.92;36.88;;;;;;;-0.97;76.46;99759.91;2095497;83;28034;-70
2021/12/08 07:22:34;;;;;;;79.60;35.30;;;;;;;-0.97;76.72;99758.17;2121725;82;28672;-66
2021/12/08 07:25:36;;;;;;;96.63;39.07;;;;;;;-0.96;76.73;99760.34;2182706;81;31297;-69
2021/12/08 07:28:42;;;;;;;83.07;36.15;;;;;;;-0.95;76.80;99757.71;2181860;80;33911;-68
2021/12/08 07:31:52;;;;;;;86.45;36.60;;;;;;;-0.92;76.65;99761.62;2180699;81;29389;-66
2021/12/08 07:34:57;;;;;;;87.75;37.85;;;;;;;-0.93;76.68;99758.57;2195975;80;28040;-66
2021/12/08 07:37:59;;;;;;;90.10;39.60;;;;;;;-0.92;76.74;99760.73;2160822;81;28655;-57
2021/12/08 07:41:23;;;;;;;100.38;41.00;;;;;;;-0.89;76.74;99763.77;2210664;80;32305;-70
2021/12/08 07:44:25;;;;;;;90.57;38.70;;;;;;;-0.87;76.85;99763.30;2113868;82;32456;-67
2021/12/08 07:47:30;;;;;;;79.12;35.52;;;;;;;-0.84;76.78;99758.02;2188177;80;29256;-53
2021/12/08 07:50:40;;;;;;;73.53;31.00;;;;;;;-0.82;76.73;99749.67;2214470;80;27692;-60
2021/12/08 07:53:43;;;;;;;79.05;35.05;;;;;;;-0.73;76.80;99747.38;2212763;80;29524;-54
2021/12/08 07:56:48;;;;;;;73.83;34.90;;;;;;;-0.65;76.50;99749.45;2208777;80;32252;-56
2021/12/08 07:59:54;;;;;;;75.67;36.10;;;;;;;-0.59;76.60;99745.44;2207262;80;32970;-57
2021/12/08 08:02:56;;;;;;;72.90;31.62;;;;;;;-0.53;76.16;99746.69;2213350;80;29497;-52
2021/12/08 08:06:01;;;;;;;80.22;36.33;;;;;;;-0.51;75.77;99744.91;2213300;80;27729;-54
2021/12/08 08:09:08;;;;;;;71.87;33.25;;;;;;;-0.48;75.81;99742.21;2199883;80;28658;-74
2021/12/08 08:12:18;;;;;;;71.82;32.93;;;;;;;-0.46;75.58;99745.69;2200078;80;31037;-77
2021/12/08 08:15:25;;;;;;;70.15;30.12;;;;;;;-0.40;75.52;99743.88;2199259;80;33035;-66
2021/12/08 08:18:29;;;;;;;;;;;;;;;-0.41;75.00;99737.73;2204027;80;29951;-70
2021/12/08 08:21:34;;;;;;;65.92;32.28;;;;;;;-0.46;74.68;99734.31;2229441;79;27699;-59
2021/12/08 08:24:37;;;;;;;64.58;29.75;;;;;;;-0.43;75.08;99739.97;2229843;79;28671;-61
2021/12/08 08:27:42;;;;;;;72.62;31.42;;;;;;;-0.42;74.71;99741.71;2211282;79;30812;-71
2021/12/08 08:30:55;;;;;;;65.90;29.75;;;;;;;-0.41;74.74;99740.36;2199969;79;34278;-62
2021/12/08 08:33:57;;;;;;;66.45;29.05;;;;;;;-0.40;74.37;99742.56;2200012;80;30154;-73
2021/12/08 08:37:00;;;;;;;73.92;30.17;;;;;;;-0.44;74.15;99739.11;2199813;79;27920;-67
2021/12/08 08:40:08;;;;;;;58.78;26.90;;;;;;;-0.44;74.37;99735.59;2199429;80;29495;-56
2021/12/08 08:43:11;;;;;;;54.27;27.40;;;;;;;-0.40;74.42;99734.67;2199764;80;31034;-53
2021/12/08 08:46:19;;;;;;;59.13;28.07;;;;;;;-0.40;74.05;99743.88;2200611;80;33605;-50
2021/12/08 08:49:25;;;;;;;62.38;27.95;;;;;;;-0.39;74.12;99743.84;2176532;80;29330;-52
2021/12/08 08:52:35;;;;;;;62.30;29.37;;;;;;;-0.35;74.29;99744.70;2148463;82;28003;-52
2021/12/08 08:55:45;;;;;;;62.85;29.45;;;;;;;-0.31;73.87;99748.57;2123527;83;29489;-65
2021/12/08 08:58:53;;;;;;;61.35;27.82;;;;;;;-0.27;74.16;99745.44;2146741;82;30737;-67
2021/12/08 09:01:56;;;;;;;62.27;29.52;;;;;;;-0.24;73.94;99746.72;2166005;82;32940;-52
2021/12/08 09:05:02;;;;;;;65.50;29.82;;;;;;;-0.18;73.88;99751.02;2165940;82;30071;-53
2021/12/08 09:08:07;;;;;;;60.80;29.72;;;;;;;-0.15;74.01;99743.09;2173110;81;27629;-52
2021/12/08 09:11:17;;;;;;;69.47;29.92;;;;;;;-0.11;74.00;99750.05;2124991;82;29476;-58
2021/12/08 09:14:24;;;;;;;59.63;28.00;;;;;;;-0.08;73.83;99745.17;2121088;83;31079;-67
2021/12/08 09:17:35;;;;;;;57.80;26.17;;;;;;;-0.08;73.41;99743.40;2177966;80;33004;-67
2021/12/08 09:21:00;;;;;;;67.85;29.42;;;;;;;-0.07;73.42;99741.19;2156944;81;29942;-66
2021/12/08 09:24:07;;;;;;;54.15;25.62;;;;;;;-0.04;73.58;99735.03;2144955;83;27682;-63
2021/12/08 09:27:11;;;;;;;60.05;27.00;;;;;;;-0.07;72.86;99728.48;2145887;82;28715;-66
2021/12/08 09:30:18;;;;;;;60.33;27.00;;;;;;;-0.14;72.73;99721.13;2118961;83;31078;-72
2021/12/08 09:33:25;;;;;;;61.48;27.73;;;;;;;-0.16;73.14;99720.28;2151713;81;32361;-61
2021/12/08 09:36:33;;;;;;;60.15;28.47;;;;;;;-0.15;73.19;99710.18;2155016;82;29451;-58
2021/12/08 09:39:42;;;;;;;59.40;28.47;;;;;;;-0.10;73.38;99706.16;2156179;81;28246;-61
2021/12/08 09:42:51;;;;;;;60.45;29.52;;;;;;;-0.10;72.99;99699.14;2121544;82;28653;-60
2021/12/08 09:45:59;;;;;;;55.78;27.42;;;;;;;-0.07;73.36;99695.12;2195827;80;32245;-63
2021/12/08 09:49:02;;;;;;;65.22;29.12;;;;;;;-0.03;72.95;99693.33;2207244;79;32953;-52
2021/12/08 09:52:08;;;;;;;62.00;28.98;;;;;;;-0.07;73.11;99683.27;2194173;80;30292;-65
2021/12/08 09:55:12;;;;;;;63.13;28.83;;;;;;;-0.04;73.21;99677.11;2179196;81;27984;-59
2021/12/08 09:58:16;;;;;;;60.92;28.50;;;;;;;-0.05;73.09;99667.00;2176674;80;28643;-55
2021/12/08 10:01:20;;;;;;;60.98;27.93;;;;;;;-0.06;72.84;99656.05;2182784;80;31238;-73
2021/12/08 10:04:22;;;;;;;70.77;31.23;;;;;;;-0.16;73.25;99628.14;2158480;81;33495;-56
2021/12/08 10:07:26;;;;;;;55.98;27.15;;;;;;;-0.16;73.25;99628.14;2153885;82;29953;-53
2021/12/08 10:10:29;;;;;;;60.15;27.45;;;;;;;-0.02;73.10;99652.48;2167185;80;27715;-55
2021/12/08 10:13:31;;;;;;;58.55;27.40;;;;;;;-0.01;72.73;99648.09;2182031;80;28638;-66
2021/12/08 10:16:34;;;;;;;60.12;28.77;;;;;;;-0.05;72.86;99649.89;2163568;82;31957;-68
2021/12/08 10:19:36;;;;;;;62.55;28.75;;;;;;;-0.08;72.73;99655.66;2169359;81;33270;-69
2021/12/08 10:22:40;;;;;;;60.63;28.00;;;;;;;-0.11;73.00;99646.48;2168928;81;30505;-68
2021/12/08 10:25:53;;;;;;;64.32;28.35;;;;;;;-0.09;73.06;99639.01;2166148;81;28223;-67
2021/12/08 10:29:00;;;;;;;67.45;30.80;;;;;;;-0.14;72.75;99630.74;2163468;81;28704;-61
2021/12/08 10:32:05;;;;;;;83.35;38.98;;;;;;;-0.19;72.91;99629.51;2168549;81;32393;-58
2021/12/08 10:35:07;;;;;;;67.90;31.80;;;;;;;-0.21;72.87;99635.23;2162997;81;33113;-54
2021/12/08 10:38:09;;;;;;;61.02;27.87;;;;;;;-0.24;73.21;99632.22;2145136;81;29919;-63
2021/12/08 10:41:12;;;;;;;55.17;25.65;;;;;;;-0.23;73.12;99643.60;2168183;81;27727;-70
2021/12/08 10:44:14;;;;;;;54.03;26.33;;;;;;;-0.22;72.83;99638.77;2168411;81;30040;-68
2021/12/08 10:47:31;;;;;;;62.43;28.50;;;;;;;-0.26;72.76;99635.78;2168511;81;31128;-70
2021/12/08 10:57:31;;;;;;;65.22;30.48;;;;;;;-0.31;72.90;99650.30;2164363;81;27765;-67
2021/12/08 11:00:39;;;;;;;58.65;29.18;;;;;;;-0.32;73.17;99647.25;2170288;81;28649;-53
2021/12/08 11:03:41;;;;;;;49.20;25.02;;;;;;;-0.28;73.05;99641.52;2171089;81;31842;-63
2021/12/08 11:06:43;;;;;;;58.17;27.07;;;;;;;-0.25;72.89;99648.05;2170376;81;33542;-57
2021/12/08 11:09:45;;;;;;;66.37;28.45;;;;;;;-0.25;72.89;99654.17;2169660;80;30542;-57
2021/12/08 11:12:47;;;;;;;62.33;28.40;;;;;;;-0.27;72.80;99645.42;2169999;81;27608;-54
2021/12/08 11:16:05;;;;;;;65.92;30.02;;;;;;;-0.27;72.89;99651.15;2166402;81;29945;-60
2021/12/08 11:19:13;;;;;;;56.33;27.05;;;;;;;-0.29;72.93;99658.20;2153747;82;30916;-69
2021/12/08 11:22:17;;;;;;;62.40;29.48;;;;;;;-0.27;72.67;99645.42;2156085;82;33819;-77
2021/12/08 11:25:25;;;;;;;66.95;31.48;;;;;;;-0.34;72.68;99635.45;2156791;82;29500;-72
2021/12/08 11:28:31;;;;;;;57.73;28.60;;;;;;;-0.35;72.88;99639.43;2154355;82;27771;-68
2021/12/08 11:31:46;;;;;;;67.03;29.30;;;;;;;-0.33;73.01;99640.28;2173415;81;28661;-55
2021/12/08 11:34:48;;;;;;;;;;;;;;;-0.33;72.87;99635.02;2178989;81;31084;-58
2021/12/08 11:38:00;;;;;;;64.55;30.17;;;;;;;-0.32;73.11;99614.35;2125722;82;34009;-51
2021/12/08 11:41:08;;;;;;;75.87;32.20;;;;;;;-0.33;72.96;99610.86;2156121;81;29462;-64
2021/12/08 11:44:21;;;;;;;66.67;32.05;;;;;;;-0.26;73.14;99609.46;2149545;81;28490;-53
2021/12/08 11:47:29;;;;;;;67.20;32.25;;;;;;;-0.23;72.87;99605.01;2170377;81;29073;-55
2021/12/08 11:50:32;;;;;;;66.75;31.27;;;;;;;-0.25;72.81;99604.63;2168570;80;31188;-53
2021/12/08 11:53:38;;;;;;;65.67;32.63;;;;;;;-0.37;72.51;99593.84;2160240;81;33117;-55
2021/12/08 11:56:41;;;;;;;58.25;27.93;;;;;;;-0.37;72.88;99590.75;2162623;81;29331;-63
2021/12/08 11:59:55;;;;;;;55.70;27.85;;;;;;;-0.33;72.64;99593.76;2160343;80;27695;-54
2021/12/08 12:03:02;;;;;;;62.62;28.62;;;;;;;-0.39;72.38;99586.42;2171307;81;29121;-58
2021/12/08 12:06:05;;;;;;;52.40;25.88;;;;;;;-0.45;72.41;99588.70;2124999;82;31581;-54
2021/12/08 12:09:09;;;;;;;66.82;31.25;;;;;;;-0.42;72.64;99583.40;2124743;82;33112;-53
2021/12/08 12:12:12;;;;;;;56.20;28.00;;;;;;;-0.41;72.68;99582.94;2123748;82;29347;-61
2021/12/08 12:15:17;;;;;;;56.08;28.65;;;;;;;-0.41;72.56;99590.83;2170823;81;28001;-55
2021/12/08 12:18:22;;;;;;;55.92;27.55;;;;;;;-0.46;72.33;99581.70;2169121;81;28651;-59
2021/12/08 12:21:53;;;;;;;60.88;29.35;;;;;;;-0.50;72.45;99577.38;2173501;81;31864;-62
2021/12/08 12:25:25;;;;;;;59.53;29.23;;;;;;;-0.51;72.60;99576.95;2160245;81;34188;-51
2021/12/08 12:28:44;;;;;;;57.93;26.27;;;;;;;-0.49;72.60;99581.75;2166303;81;30452;-55
2021/12/08 12:32:16;;;;;;;57.88;27.58;;;;;;;-0.49;72.46;99573.86;2115084;82;27601;-49
2021/12/08 12:35:26;;;;;;;56.20;26.77;;;;;;;-0.52;72.50;99572.58;2112640;83;29919;-51
2021/12/08 12:38:39;;;;;;;66.10;30.02;;;;;;;-0.61;72.27;99557.81;2130905;81;31118;-54
2021/12/08 12:41:41;;;;;;;62.05;29.10;;;;;;;-0.67;72.36;99556.62;2142268;81;33859;-56
2021/12/08 12:44:52;;;;;;;52.53;26.85;;;;;;;-0.71;72.65;99557.08;2138691;81;45512;-55
2021/12/08 12:48:14;;;;;;;61.08;30.05;;;;;;;-0.71;72.78;99555.77;2118714;82;27814;-50
2021/12/08 12:51:18;;;;;;;61.02;28.12;;;;;;;-0.73;72.69;99557.55;2154656;81;29537;-49
2021/12/08 12:54:27;;;;;;;51.77;25.20;;;;;;;-0.77;72.58;99543.59;2180819;80;32221;-54
2021/12/08 12:57:29;;;;;;;58.98;28.17;;;;;;;-0.83;72.78;99546.34;2115153;82;32972;-57
2021/12/08 13:00:39;;;;;;;53.05;25.80;;;;;;;-0.87;72.86;99542.00;2114473;82;30521;-53
2021/12/08 13:03:54;;;;;;;55.48;26.17;;;;;;;-0.89;72.89;99538.53;2116846;82;28003;-54
2021/12/08 13:07:03;;;;;;;52.50;26.82;;;;;;;-0.96;72.87;99532.92;2196144;80;29648;-53
2021/12/08 13:10:20;;;;;;;54.70;24.75;;;;;;;-0.97;73.12;99541.27;2093513;82;32056;-51
2021/12/08 13:13:20;;;;;;;57.95;26.82;;;;;;;-0.99;73.05;99535.16;2181322;80;32979;-52
2021/12/08 13:16:33;;;;;;;59.18;29.07;;;;;;;-1.01;73.12;99541.34;2182122;80;30537;-52
2021/12/08 13:19:50;;;;;;;59.63;27.60;;;;;;;-1.02;73.16;99544.86;2178288;80;27618;-60
2021/12/08 13:23:00;;;;;;;63.60;29.82;;;;;;;-1.01;73.30;99552.72;2182284;80;29063;-52
2021/12/08 13:26:11;;;;;;;60.28;27.77;;;;;;;-1.00;73.34;99552.28;2176935;80;31034;-64
2021/12/08 13:29:20;;;;;;;66.90;30.25;;;;;;;-0.98;73.28;99558.36;2191220;80;32646;-52
2021/12/08 13:32:26;;;;;;;72.08;33.63;;;;;;;-0.96;73.44;99555.27;2192049;80;30146;-66
2021/12/08 13:35:33;;;;;;;64.67;31.40;;;;;;;-0.96;73.30;99561.41;2150591;82;27612;-58
2021/12/08 13:38:43;;;;;;;70.62;31.55;;;;;;;-0.95;73.42;99559.64;2144084;81;30115;-68
2021/12/08 13:42:01;;;;;;;71.40;32.85;;;;;;;-0.91;73.37;99556.08;2185572;80;31671;-71
2021/12/08 13:45:10;;;;;;;68.20;31.40;;;;;;;-0.91;73.16;99560.03;2176513;80;32995;-69
2021/12/08 13:48:12;;;;;;;66.75;31.40;;;;;;;-0.94;73.18;99560.95;2166744;80;30321;-69
2021/12/08 13:51:17;;;;;;;59.73;29.57;;;;;;;-0.93;73.39;99565.75;2187490;80;27696;-68
2021/12/08 13:54:29;;;;;;;65.12;33.53;;;;;;;-0.90;73.22;99563.08;2189321;80;28687;-70
2021/12/08 13:57:43;;;;;;;61.63;29.95;;;;;;;-0.88;73.29;99565.67;2180245;80;31116;-71
2021/12/08 14:00:49;;;;;;;62.30;28.32;;;;;;;-0.86;73.27;99566.09;2176000;80;33023;-72
2021/12/08 14:03:52;;;;;;;66.82;32.83;;;;;;;-0.82;73.37;99580.06;2182315;80;29342;-63
2021/12/08 14:06:54;;;;;;;63.13;31.15;;;;;;;-0.85;73.11;99586.24;2183125;80;27683;-65
2021/12/08 14:10:03;;;;;;;66.07;31.37;;;;;;;-0.84;73.15;99577.89;2189573;80;29873;-71
2021/12/08 14:13:09;;;;;;;70.35;32.13;;;;;;;-0.84;73.21;99576.15;2181712;80;31831;-59
2021/12/08 14:16:16;;;;;;;74.03;34.08;;;;;;;-0.88;72.99;99565.67;2182444;80;32804;-56
2021/12/08 14:19:18;;;;;;;71.12;31.27;;;;;;;-0.93;73.19;99571.89;2188470;80;29415;-58
2021/12/08 14:22:20;;;;;;;65.78;33.90;;;;;;;-0.92;73.19;99571.00;2182809;80;27695;-58
2021/12/08 14:25:48;;;;;;;62.13;30.20;;;;;;;-0.95;73.10;99563.58;2188904;80;29091;-68
2021/12/08 14:29:10;;;;;;;54.80;27.70;;;;;;;-0.97;73.18;99557.48;2192038;80;31848;-59
2021/12/08 14:32:13;;;;;;;65.50;32.25;;;;;;;-1.02;73.04;99563.27;2184508;80;34249;-54
2021/12/08 14:35:15;;;;;;;67.37;29.25;;;;;;;-1.10;73.07;99562.91;2185863;80;29975;-58
2021/12/08 14:38:17;;;;;;;63.10;28.75;;;;;;;-1.12;73.36;99575.20;2184539;80;27696;-65
2021/12/08 14:41:26;;;;;;;65.50;29.92;;;;;;;-1.15;73.30;99576.55;2184753;80;29887;-54
2021/12/08 14:44:48;;;;;;;64.60;30.55;;;;;;;-1.15;73.39;99578.33;2181954;80;31040;-56
2021/12/08 14:47:52;;;;;;;65.32;31.07;;;;;;;-1.17;73.48;99579.67;2182011;80;33456;-55
2021/12/08 14:50:52;;;;;;;64.42;29.85;;;;;;;-1.17;73.43;99580.99;2179213;80;29344;-54
2021/12/08 14:53:55;;;;;;;62.45;30.80;;;;;;;-1.24;73.48;99570.97;2168537;81;27841;-61
2021/12/08 14:57:14;;;;;;;77.70;36.08;;;;;;;-1.27;73.57;99569.73;2140364;81;29399;-68
2021/12/08 15:00:29;;;;;;;68.50;31.23;;;;;;;-1.27;73.63;99564.90;2124797;82;32409;-56